Terminal Aerodrome Forecast
Issued by NWS

Current Version | Previous Version | Text Only | Print | Product List | Glossary On
Versions: 1 2 3 4 5 6 7 8 9 10 11 12 13 14 15 16 17
000
FTUS45 KTFX 251100
TAFCTB
TAF
KCTB 251131Z 2512/2612 25017G24KT P6SM BKN250
     FM251800 25035G45KT P6SM BKN200
     FM252100 25030G40KT P6SM BKN200
     FM260200 25020KT P6SM BKN200=

USA.gov is the U.S. government's official web portal to all federal, state and local government web resources and services.